New Richmond, WI

06:25 PM CST del 26 Febbraio 2015 (GMT -0600)
New Richmond Municipal | Change Station
CLOSE
Current Station
Aeroporto
Location: New Richmond,
Altitudine: 997 ft
Stazioni meteo nelle vicinanze

Alt. 997 ft 45.15 °N, 92.53 °W | Updated 10 minutes ago

Clear
Sereno
3 °F
Sembra -8 °F
N
6
Vento Variabile Vento da NNO

Oggi
Massima -- | Minima -- °F
--% Possibilità di precip.
Ieri
Massima -- | Minima -- °F
Precip. -- in
6:53 AM 5:53 PM
Gobba a ponente, 63% visible
Pressione 30.42 in
Visibilità 10.0 miglia
Nuvole Sereno
Raffreddamento del vento -8 °F
Punto di rugiada -9 °F
Umidità 55%
Piovosità 0.00 in
Spessore del manto nevoso Non disponibile.
Raggi UV 0 fuori da 12
Polline .40 fuori da 12
Qualità dell'aria Non disponibile.
Flu Activity Non disponibile.
METAR KRNH 270015Z AUTO 33005KT 10SM CLR M16/M23 A3042 RMK AO2 T11591230

More Conditions Fewer Conditions

Pressione 30.42 in
Visibilità 10.0 miglia
Nuvole Sereno
Raffreddamento del vento -8 °F
Punto di rugiada -9 °F
Umidità 55%
Piovosità 0.00 in
Spessore del manto nevoso Non disponibile.
Raggi UV 0 fuori da 12
Polline .40 fuori da 12
Qualità dell'aria Non disponibile.
Flu Activity Non disponibile.
METAR KRNH 270015Z AUTO 33005KT 10SM CLR M16/M23 A3042 RMK AO2 T11591230

More Conditions Fewer Conditions

10-Day Weather Forecast

Almanac

Astronomia

Feb. 26, 2015 Alba Tramonto
Ora attuale
Crepuscolo civile
Crepuscolo nautico
Crepuscolo astronomico
Luna
Estensione della luce visibile
Lunghezza del giorno
Tomorrow will be .
, % of the Moon is Illuminated

Gli estremi di oggi

State Highs State Lows

Community

WunderPhotos

Upload Photos

1,800,543 foto caricate!

WunderBlogs® & News

Nearby

Qualità dell'aria

  Qualità dell'aria Indice AQ Inquinante
Not available.

Profondità neve

Stazione Profondità Altitudine

Attività sismica

Città  Distanza Mag. Data & Ora
Minimo Magnitudo Mostrato è 2.5.

Temperature delle acque costiere

Località Temperatura

Stazioni meteo nelle vicinanze